createdAt,value
2018-02-27T00:00:10.558Z,5.70
2018-02-27T00:02:38.802Z,6.57
2018-02-27T00:05:06.989Z,6.35
2018-02-27T00:07:35.674Z,4.53
2018-02-27T00:10:04.670Z,5.82
2018-02-27T00:12:32.811Z,5.75
2018-02-27T00:15:01.651Z,6.05
2018-02-27T00:17:29.825Z,5.78
2018-02-27T00:19:58.932Z,4.65
2018-02-27T00:22:27.863Z,5.22
2018-02-27T00:24:57.329Z,5.25
2018-02-27T00:27:25.507Z,4.80
2018-02-27T00:29:53.745Z,4.30
2018-02-27T00:32:21.905Z,5.05
2018-02-27T00:34:50.247Z,6.07
2018-02-27T00:37:19.177Z,5.10
2018-02-27T00:39:47.347Z,6.85
2018-02-27T00:42:15.806Z,5.03
2018-02-27T00:44:44.106Z,5.50
2018-02-27T00:47:12.598Z,5.85
2018-02-27T00:49:40.767Z,7.25
2018-02-27T00:52:08.919Z,5.20
2018-02-27T00:54:38.155Z,5.12
2018-02-27T00:57:06.977Z,6.32
2018-02-27T00:59:35.145Z,4.82
2018-02-27T01:02:03.300Z,7.12
2018-02-27T01:04:31.540Z,5.45
2018-02-27T01:07:00.369Z,6.55
2018-02-27T01:09:29.308Z,6.40
2018-02-27T01:11:58.373Z,6.40
2018-02-27T01:14:26.551Z,8.27
2018-02-27T01:16:55.468Z,6.57
2018-02-27T01:19:23.645Z,6.62
2018-02-27T01:21:52.557Z,5.95
2018-02-27T01:24:20.825Z,6.15
2018-02-27T01:26:49.657Z,5.00
2018-02-27T01:29:18.392Z,5.60
2018-02-27T01:31:46.565Z,6.95
2018-02-27T01:34:14.729Z,6.12
2018-02-27T01:36:43.656Z,6.20
2018-02-27T01:39:11.886Z,6.10
2018-02-27T01:41:40.142Z,5.12
2018-02-27T01:44:08.305Z,7.22
2018-02-27T01:46:36.494Z,7.37
2018-02-27T01:49:04.704Z,6.32
2018-02-27T01:51:33.640Z,3.40
2018-02-27T01:54:01.811Z,5.57
2018-02-27T01:56:30.021Z,5.12
2018-02-27T01:58:58.782Z,6.28
2018-02-27T02:01:26.953Z,7.43
2018-02-27T02:03:55.130Z,7.00
2018-02-27T02:06:23.309Z,7.30
2018-02-27T02:08:51.480Z,5.78
2018-02-27T02:11:19.653Z,7.53
2018-02-27T02:13:47.876Z,7.70
2018-02-27T02:16:16.073Z,6.53
2018-02-27T02:18:44.232Z,4.85
2018-02-27T02:21:12.405Z,7.85
2018-02-27T02:23:41.418Z,3.75
2018-02-27T02:26:10.386Z,5.80
2018-02-27T02:28:38.553Z,5.57
2018-02-27T02:31:06.723Z,4.12
2018-02-27T02:33:36.189Z,3.85
2018-02-27T02:36:07.308Z,6.85
2018-02-27T02:38:35.502Z,4.68
2018-02-27T02:41:04.025Z,5.20
2018-02-27T02:43:32.248Z,4.55
2018-02-27T02:46:00.508Z,1.45
2018-02-27T02:48:29.402Z,6.28
2018-02-27T02:50:59.539Z,4.80
2018-02-27T02:53:29.335Z,4.70
2018-02-27T02:56:01.406Z,7.80
2018-02-27T02:58:31.760Z,5.43
2018-02-27T03:00:59.934Z,5.35
2018-02-27T03:03:28.451Z,4.00
2018-02-27T03:05:56.755Z,3.65
2018-02-27T03:08:27.986Z,5.72
2018-02-27T03:10:56.532Z,5.87
2018-02-27T03:13:26.285Z,5.07
2018-02-27T03:15:57.296Z,2.65
2018-02-27T03:18:25.457Z,7.15
2018-02-27T03:20:55.019Z,5.25
2018-02-27T03:23:23.379Z,5.15
2018-02-27T03:25:52.490Z,6.40
2018-02-27T03:28:22.389Z,2.95
2018-02-27T03:30:51.270Z,3.97
2018-02-27T03:33:20.689Z,3.75
2018-02-27T03:35:51.119Z,7.80
2018-02-27T03:38:22.977Z,7.28
2018-02-27T03:40:51.870Z,6.20
2018-02-27T03:43:22.154Z,6.78
2018-02-27T03:45:56.019Z,6.15
2018-02-27T03:48:24.959Z,7.20
2018-02-27T03:50:56.110Z,7.18
2018-02-27T03:53:26.479Z,6.70
2018-02-27T03:55:54.653Z,8.18
2018-02-27T03:58:23.754Z,8.00
2018-02-27T04:00:52.021Z,8.30
2018-02-27T04:03:20.200Z,9.15
2018-02-27T04:05:52.666Z,6.90
2018-02-27T04:08:20.846Z,8.80
2018-02-27T04:11:01.966Z,7.30
2018-02-27T04:13:33.245Z,8.50
2018-02-27T04:16:07.382Z,8.73
2018-02-27T04:18:36.977Z,9.85
2018-02-27T04:21:14.885Z,9.20
2018-02-27T04:23:43.666Z,7.22
2018-02-27T04:26:11.866Z,6.40
2018-02-27T04:28:41.868Z,7.55
2018-02-27T04:31:12.018Z,8.50
2018-02-27T04:33:40.953Z,7.05
2018-02-27T04:36:09.302Z,6.30
2018-02-27T04:38:40.863Z,8.20
2018-02-27T04:41:09.248Z,8.43
2018-02-27T04:43:38.292Z,9.48
2018-02-27T04:46:09.002Z,8.55
2018-02-27T04:48:37.227Z,8.10
2018-02-27T04:51:05.673Z,6.32
2018-02-27T04:53:34.466Z,7.22
2018-02-27T04:56:03.736Z,9.30
2018-02-27T04:58:31.871Z,7.45
2018-02-27T05:01:00.764Z,7.00
2018-02-27T05:03:30.621Z,7.10
2018-02-27T05:06:02.508Z,4.78
2018-02-27T05:08:31.148Z,9.35
2018-02-27T05:11:05.434Z,7.32
2018-02-27T05:13:33.621Z,7.62
2018-02-27T05:16:02.206Z,8.23
2018-02-27T05:18:34.513Z,5.57
2018-02-27T05:21:03.958Z,6.80
2018-02-27T05:23:32.850Z,7.50
2018-02-27T05:26:06.740Z,4.57
2018-02-27T05:28:36.821Z,8.35
2018-02-27T05:31:05.370Z,9.38
2018-02-27T05:33:33.701Z,6.47
2018-02-27T05:38:57.226Z,7.60
2018-02-27T05:41:36.913Z,7.37
2018-02-27T05:44:08.215Z,9.13
2018-02-27T05:46:37.425Z,8.80
2018-02-27T05:49:06.418Z,9.23
2018-02-27T05:51:34.660Z,7.53
2018-02-27T05:54:04.048Z,8.73
2018-02-27T05:56:32.967Z,8.70
2018-02-27T05:59:05.847Z,8.95
2018-02-27T06:01:34.069Z,9.63
2018-02-27T06:04:06.987Z,6.82
2018-02-27T06:06:36.965Z,8.85
2018-02-27T06:09:05.822Z,9.68
2018-02-27T06:11:35.164Z,7.87
2018-02-27T06:14:03.461Z,7.62
2018-02-27T06:16:33.418Z,7.78
2018-02-27T06:19:01.628Z,6.53
2018-02-27T06:21:32.860Z,8.32
2018-02-27T06:24:02.123Z,9.82
2018-02-27T06:26:31.885Z,9.27
2018-02-27T06:29:00.057Z,6.00
2018-02-27T06:31:29.353Z,9.35
2018-02-27T06:33:57.586Z,8.82
2018-02-27T06:36:27.973Z,8.80
2018-02-27T06:38:58.788Z,8.30
2018-02-27T06:41:33.869Z,7.65
2018-02-27T06:44:04.095Z,9.88
2018-02-27T06:46:33.081Z,9.15
2018-02-27T06:49:02.509Z,8.25
2018-02-27T06:51:37.326Z,9.57
2018-02-27T06:54:05.545Z,9.10
2018-02-27T06:56:33.721Z,9.57
2018-02-27T06:59:01.894Z,9.93
2018-02-27T07:01:30.208Z,7.15
2018-02-27T07:03:58.348Z,10.25
2018-02-27T07:06:27.418Z,8.43
2018-02-27T07:08:56.366Z,9.00
2018-02-27T07:11:24.548Z,7.97
2018-02-27T07:13:53.593Z,6.62
2018-02-27T07:16:23.038Z,8.32
2018-02-27T07:18:51.256Z,10.65
2018-02-27T07:21:20.286Z,14.02
2018-02-27T07:23:50.869Z,13.13
2018-02-27T07:26:19.849Z,11.60
2018-02-27T07:28:48.259Z,8.50
2018-02-27T07:31:17.032Z,8.82
2018-02-27T07:33:46.457Z,8.07
2018-02-27T07:36:14.633Z,11.48
2018-02-27T07:38:43.872Z,10.02
2018-02-27T07:41:14.386Z,9.93
2018-02-27T07:43:42.558Z,9.68
2018-02-27T07:46:12.285Z,8.45
2018-02-27T07:48:40.484Z,9.68
2018-02-27T07:51:09.169Z,10.07
2018-02-27T07:53:40.812Z,9.20
2018-02-27T07:56:08.991Z,7.53
2018-02-27T07:58:37.477Z,6.03
2018-02-27T08:01:07.141Z,8.95
2018-02-27T08:03:36.456Z,8.68
2018-02-27T08:06:05.590Z,5.15
2018-02-27T08:08:33.795Z,8.68
2018-02-27T08:11:03.371Z,11.75
2018-02-27T08:13:32.755Z,11.73
2018-02-27T08:16:03.164Z,9.88
2018-02-27T08:18:44.829Z,8.75
2018-02-27T08:21:12.994Z,9.65
2018-02-27T08:23:42.400Z,9.30
2018-02-27T08:26:10.868Z,14.52
2018-02-27T08:28:40.805Z,13.20
2018-02-27T08:31:11.581Z,10.40
2018-02-27T08:33:40.840Z,11.73
2018-02-27T08:36:09.085Z,10.02
2018-02-27T08:38:38.450Z,10.57
2018-02-27T08:41:06.721Z,10.60
2018-02-27T08:43:35.938Z,5.45
2018-02-27T08:46:05.030Z,13.13
2018-02-27T08:48:33.198Z,11.23
2018-02-27T08:51:01.854Z,9.38
2018-02-27T08:53:30.053Z,12.80
2018-02-27T08:55:59.536Z,11.88
2018-02-27T08:58:27.694Z,6.45
2018-02-27T09:00:56.485Z,9.32
2018-02-27T09:03:25.476Z,11.57
2018-02-27T09:05:55.417Z,13.80
2018-02-27T09:08:23.610Z,10.57
2018-02-27T09:10:51.796Z,11.85
2018-02-27T09:13:19.957Z,10.65
2018-02-27T09:15:48.233Z,10.15
2018-02-27T09:18:16.423Z,9.30
2018-02-27T09:20:44.653Z,13.45
2018-02-27T09:23:13.593Z,7.80
2018-02-27T09:25:41.768Z,7.45
2018-02-27T09:28:10.753Z,12.18
2018-02-27T09:30:38.892Z,10.93
2018-02-27T09:33:07.058Z,11.93
2018-02-27T09:35:35.534Z,12.20
2018-02-27T09:38:03.754Z,13.60
2018-02-27T09:40:31.882Z,10.43
2018-02-27T09:43:03.305Z,11.00
2018-02-27T09:45:33.162Z,9.55
2018-02-27T09:48:02.078Z,10.10
2018-02-27T09:50:30.239Z,11.63
2018-02-27T09:52:59.248Z,10.60
2018-02-27T09:55:28.417Z,9.38
2018-02-27T09:57:57.464Z,12.80
2018-02-27T10:00:26.454Z,7.82
2018-02-27T10:02:54.593Z,9.77
2018-02-27T10:05:22.734Z,8.15
2018-02-27T10:07:53.501Z,10.52
2018-02-27T10:10:23.028Z,11.55
2018-02-27T10:12:51.181Z,11.80
2018-02-27T10:15:20.459Z,12.40
2018-02-27T10:17:48.602Z,11.57
2018-02-27T10:20:20.243Z,13.95
2018-02-27T10:22:48.380Z,12.37
2018-02-27T10:25:16.561Z,13.02
2018-02-27T10:27:46.470Z,12.43
2018-02-27T10:30:15.630Z,12.95
2018-02-27T10:32:44.729Z,16.77
2018-02-27T10:35:12.924Z,10.95
2018-02-27T10:37:41.047Z,13.95
2018-02-27T10:40:09.197Z,11.95
2018-02-27T10:42:38.976Z,13.62
2018-02-27T10:45:07.289Z,8.55
2018-02-27T10:47:36.227Z,12.13
2018-02-27T10:50:04.599Z,12.35
2018-02-27T10:52:34.294Z,8.48
2018-02-27T10:55:03.451Z,13.30
2018-02-27T10:57:31.586Z,14.65
2018-02-27T10:59:59.745Z,12.07
2018-02-27T11:02:27.905Z,12.23
2018-02-27T11:04:58.371Z,11.43
2018-02-27T11:07:28.898Z,13.60
2018-02-27T11:09:58.348Z,15.32
2018-02-27T11:12:26.525Z,14.00
2018-02-27T11:14:54.786Z,17.65
2018-02-27T11:17:23.334Z,14.98
2018-02-27T11:19:52.222Z,12.90
2018-02-27T11:22:20.302Z,13.15
2018-02-27T11:24:49.323Z,10.80
2018-02-27T11:27:17.466Z,13.93
2018-02-27T11:29:46.858Z,14.02
2018-02-27T11:32:16.998Z,11.18
2018-02-27T11:34:45.512Z,13.07
2018-02-27T11:37:13.703Z,17.40
2018-02-27T11:39:41.848Z,14.00
2018-02-27T11:42:09.990Z,11.10
2018-02-27T11:44:39.056Z,12.75
2018-02-27T11:47:07.209Z,8.23
2018-02-27T11:49:35.989Z,10.98
2018-02-27T11:52:04.161Z,12.68
2018-02-27T11:54:32.336Z,11.27
2018-02-27T11:57:00.475Z,11.43
2018-02-27T11:59:29.679Z,6.03
2018-02-27T12:01:59.674Z,12.80
2018-02-27T12:04:28.083Z,14.10
2018-02-27T12:06:56.287Z,13.55
2018-02-27T12:09:24.956Z,13.35
2018-02-27T12:11:53.768Z,12.23
2018-02-27T12:14:22.119Z,10.98
2018-02-27T12:16:50.351Z,12.15
2018-02-27T12:19:20.063Z,10.93
2018-02-27T12:21:48.230Z,13.60
2018-02-27T12:24:16.699Z,14.35
2018-02-27T12:26:44.919Z,9.60
2018-02-27T12:29:14.597Z,13.15
2018-02-27T12:31:43.436Z,13.90
2018-02-27T12:34:11.711Z,8.18
2018-02-27T12:36:39.854Z,11.25
2018-02-27T12:39:07.999Z,12.55
2018-02-27T12:41:36.266Z,13.68
2018-02-27T12:44:04.412Z,8.15
2018-02-27T12:46:33.564Z,15.90
2018-02-27T12:49:01.771Z,14.73
2018-02-27T12:51:29.935Z,12.65
2018-02-27T12:53:58.840Z,11.55
2018-02-27T12:56:26.999Z,7.72
2018-02-27T12:58:56.254Z,8.48
2018-02-27T13:01:24.408Z,6.45
2018-02-27T13:03:53.415Z,12.40
2018-02-27T13:06:21.551Z,11.15
2018-02-27T13:08:49.703Z,10.02
2018-02-27T13:11:18.423Z,9.82
2018-02-27T13:13:46.530Z,13.18
2018-02-27T13:16:14.688Z,10.85
2018-02-27T13:18:42.891Z,6.55
2018-02-27T13:21:12.170Z,9.93
2018-02-27T13:23:44.153Z,11.38
2018-02-27T13:26:12.302Z,11.23
2018-02-27T13:28:40.414Z,8.75
2018-02-27T13:31:08.561Z,12.48
2018-02-27T13:33:36.707Z,12.55
2018-02-27T13:36:04.970Z,5.90
2018-02-27T13:38:33.102Z,5.90
2018-02-27T13:41:02.044Z,8.85
2018-02-27T13:43:30.196Z,9.68
2018-02-27T13:45:58.470Z,9.20
2018-02-27T13:48:28.403Z,10.02
2018-02-27T13:50:57.834Z,11.38
2018-02-27T13:53:26.304Z,11.27
2018-02-27T13:55:54.624Z,16.70
2018-02-27T13:58:22.796Z,12.10
2018-02-27T14:00:50.976Z,13.68
2018-02-27T14:03:19.135Z,12.25
2018-02-27T14:05:47.369Z,14.93
2018-02-27T14:08:16.055Z,12.95
2018-02-27T14:10:44.194Z,5.07
2018-02-27T14:13:13.364Z,8.02
2018-02-27T14:15:45.207Z,19.52
2018-02-27T14:18:14.265Z,11.50
2018-02-27T14:20:42.429Z,13.62
2018-02-27T14:23:11.341Z,22.87
2018-02-27T14:25:40.043Z,15.32
2018-02-27T14:28:08.171Z,11.82
2018-02-27T14:30:36.335Z,20.48
2018-02-27T14:33:06.203Z,14.30
2018-02-27T14:35:34.435Z,13.85
2018-02-27T14:38:02.618Z,15.02
2018-02-27T14:40:32.405Z,16.02
2018-02-27T14:43:00.567Z,17.13
2018-02-27T14:45:28.777Z,15.00
2018-02-27T14:47:58.487Z,14.15
2018-02-27T14:50:26.615Z,15.27
2018-02-27T14:52:55.625Z,14.13
2018-02-27T14:55:23.785Z,10.18
2018-02-27T14:57:51.949Z,15.40
2018-02-27T15:00:20.105Z,14.23
2018-02-27T15:02:48.244Z,12.70
2018-02-27T15:05:17.432Z,13.75
2018-02-27T15:07:45.638Z,12.45
2018-02-27T15:10:15.076Z,16.25
2018-02-27T15:12:43.200Z,14.25
2018-02-27T15:15:12.297Z,16.25
2018-02-27T15:17:41.257Z,14.38
2018-02-27T15:20:10.145Z,11.30
2018-02-27T15:22:38.564Z,15.00
2018-02-27T15:25:14.162Z,18.42
2018-02-27T15:27:43.411Z,17.43
2018-02-27T15:30:13.898Z,16.40
2018-02-27T15:32:42.069Z,14.52
2018-02-27T15:35:10.435Z,15.02
2018-02-27T15:37:38.557Z,16.37
2018-02-27T15:40:06.718Z,18.85
2018-02-27T15:42:35.816Z,19.50
2018-02-27T15:45:04.033Z,10.88
2018-02-27T15:47:32.240Z,15.18
2018-02-27T15:50:00.355Z,13.10
2018-02-27T15:52:29.350Z,14.32
2018-02-27T15:54:57.532Z,14.65
2018-02-27T15:57:26.440Z,16.33
2018-02-27T15:59:54.696Z,14.73
2018-02-27T16:02:24.089Z,16.37
2018-02-27T16:04:52.298Z,12.98
2018-02-27T16:07:20.491Z,16.75
2018-02-27T16:09:48.692Z,13.48
2018-02-27T16:12:16.854Z,15.40
2018-02-27T16:14:45.038Z,14.18
2018-02-27T16:17:13.483Z,14.90
2018-02-27T16:19:42.467Z,11.70
2018-02-27T16:22:10.594Z,16.90
2018-02-27T16:24:53.950Z,15.55
2018-02-27T16:27:22.106Z,15.98
2018-02-27T16:29:52.967Z,14.13
2018-02-27T16:32:21.863Z,14.65
2018-02-27T16:34:49.991Z,16.40
2018-02-27T16:37:18.137Z,19.40
2018-02-27T16:39:46.270Z,15.00
2018-02-27T16:42:15.174Z,16.92
2018-02-27T16:44:43.303Z,13.95
2018-02-27T16:47:12.063Z,19.42
2018-02-27T16:49:41.578Z,18.60
2018-02-27T16:52:09.729Z,20.20
2018-02-27T16:54:37.879Z,16.85
2018-02-27T16:57:06.018Z,16.87
2018-02-27T16:59:34.878Z,17.10
2018-02-27T17:02:03.069Z,14.65
2018-02-27T17:04:31.311Z,15.13
2018-02-27T17:06:59.942Z,17.27
2018-02-27T17:09:28.110Z,12.80
2018-02-27T17:11:57.043Z,16.48
2018-02-27T17:14:25.451Z,17.15
2018-02-27T17:16:53.682Z,17.12
2018-02-27T17:19:22.619Z,16.87
2018-02-27T17:21:50.802Z,15.13
2018-02-27T17:24:19.122Z,20.20
2018-02-27T17:26:48.698Z,23.67
2018-02-27T17:29:17.147Z,20.83
2018-02-27T17:31:46.894Z,17.70
2018-02-27T17:34:16.593Z,16.42
2018-02-27T17:36:44.763Z,17.50
2018-02-27T17:39:12.939Z,15.52
2018-02-27T17:41:41.225Z,16.40
2018-02-27T17:44:09.446Z,19.62
2018-02-27T17:46:38.370Z,11.70
2018-02-27T17:49:06.641Z,17.52
2018-02-27T17:51:35.566Z,17.00
2018-02-27T17:54:04.552Z,17.42
2018-02-27T17:56:35.064Z,16.62
2018-02-27T17:59:03.209Z,18.92
2018-02-27T18:01:32.166Z,16.02
2018-02-27T18:04:02.669Z,15.85
2018-02-27T18:06:32.346Z,16.25
2018-02-27T18:09:01.333Z,16.12
2018-02-27T18:11:30.255Z,17.55
2018-02-27T18:13:58.974Z,18.10
2018-02-27T18:16:28.058Z,15.40
2018-02-27T18:18:56.591Z,15.77
2018-02-27T18:21:26.341Z,14.45
2018-02-27T18:23:54.573Z,15.88
2018-02-27T18:26:23.228Z,16.42
2018-02-27T18:28:52.032Z,14.80
2018-02-27T18:31:20.955Z,16.05
2018-02-27T18:33:49.125Z,14.38
2018-02-27T18:36:17.392Z,19.60
2018-02-27T18:38:45.570Z,18.15
2018-02-27T18:41:13.840Z,19.33
2018-02-27T18:43:42.169Z,17.08
2018-02-27T18:46:10.292Z,15.18
2018-02-27T18:48:38.466Z,18.45
2018-02-27T18:51:06.682Z,18.25
2018-02-27T18:53:35.152Z,18.55
2018-02-27T18:56:03.352Z,16.98
2018-02-27T18:58:31.522Z,20.17
2018-02-27T19:00:59.725Z,23.42
2018-02-27T19:03:27.926Z,22.13
2018-02-27T19:05:56.237Z,20.20
2018-02-27T19:08:24.475Z,22.42
2018-02-27T19:10:53.351Z,18.92
2018-02-27T19:13:22.285Z,18.80
2018-02-27T19:15:50.634Z,16.95
2018-02-27T19:18:19.209Z,19.90
2018-02-27T19:20:48.170Z,16.98
2018-02-27T19:23:17.060Z,18.35
2018-02-27T19:25:46.409Z,19.15
2018-02-27T19:28:14.560Z,19.40
2018-02-27T19:30:45.548Z,20.62
2018-02-27T19:33:14.187Z,16.17
2018-02-27T19:35:42.957Z,11.57
2018-02-27T19:38:12.653Z,14.82
2018-02-27T19:40:41.205Z,14.65
2018-02-27T19:43:09.397Z,16.45
2018-02-27T19:45:37.767Z,14.30
2018-02-27T19:48:07.225Z,10.02
2018-02-27T19:50:35.804Z,12.60
2018-02-27T19:53:08.168Z,10.40
2018-02-27T19:55:36.692Z,8.95
2018-02-27T19:58:05.699Z,12.02
2018-02-27T20:00:35.626Z,12.93
2018-02-27T20:03:04.831Z,10.40
2018-02-27T20:05:35.981Z,11.23
2018-02-27T20:08:04.142Z,13.45
2018-02-27T20:10:32.311Z,11.35
2018-02-27T20:13:00.492Z,10.90
2018-02-27T20:15:32.312Z,10.23
2018-02-27T20:18:07.946Z,14.80
2018-02-27T20:20:36.551Z,12.77
2018-02-27T20:23:11.145Z,14.90
2018-02-27T20:25:41.098Z,12.85
2018-02-27T20:28:14.950Z,11.52
2018-02-27T20:30:43.212Z,10.82
2018-02-27T20:33:11.386Z,11.82
2018-02-27T20:35:42.711Z,14.60
2018-02-27T20:38:11.892Z,12.25
2018-02-27T20:40:40.150Z,6.53
2018-02-27T20:43:08.806Z,10.32
2018-02-27T20:45:38.225Z,7.90
2018-02-27T20:48:07.354Z,14.55
2018-02-27T20:50:38.295Z,10.57
2018-02-27T20:53:06.810Z,12.32
2018-02-27T20:55:35.168Z,9.60
2018-02-27T20:58:04.105Z,11.30
2018-02-27T21:00:33.793Z,15.32
2018-02-27T21:03:02.244Z,12.02
2018-02-27T21:05:33.292Z,11.50
2018-02-27T21:08:01.622Z,11.15
2018-02-27T21:10:29.975Z,16.70
2018-02-27T21:13:01.368Z,11.50
2018-02-27T21:15:33.281Z,11.48
2018-02-27T21:18:02.716Z,8.73
2018-02-27T21:20:31.450Z,12.88
2018-02-27T21:23:00.376Z,10.15
2018-02-27T21:25:28.963Z,13.90
2018-02-27T21:27:58.050Z,12.82
2018-02-27T21:30:28.662Z,13.05
2018-02-27T21:32:56.941Z,16.05
2018-02-27T21:35:27.330Z,11.10
2018-02-27T21:37:56.120Z,7.47
2018-02-27T21:40:24.430Z,12.68
2018-02-27T21:42:55.846Z,7.62
2018-02-27T21:45:24.253Z,7.10
2018-02-27T21:47:52.847Z,7.93
2018-02-27T21:50:21.015Z,12.77
2018-02-27T21:52:49.249Z,9.73
2018-02-27T21:55:17.947Z,10.13
2018-02-27T21:57:47.287Z,12.88
2018-02-27T22:00:16.499Z,12.50
2018-02-27T22:02:44.746Z,12.48
2018-02-27T22:05:16.096Z,12.18
2018-02-27T22:07:44.252Z,7.55
2018-02-27T22:10:12.427Z,8.43
2018-02-27T22:12:40.847Z,11.73
2018-02-27T22:15:09.079Z,6.55
2018-02-27T22:17:37.266Z,10.20
2018-02-27T22:20:05.469Z,8.18
2018-02-27T22:22:34.520Z,10.07
2018-02-27T22:25:10.998Z,9.18
2018-02-27T22:27:39.902Z,10.30
2018-02-27T22:30:12.857Z,11.02
2018-02-27T22:32:41.131Z,9.38
2018-02-27T22:35:11.155Z,11.10
2018-02-27T22:37:39.333Z,9.00
2018-02-27T22:40:08.644Z,11.90
2018-02-27T22:42:37.888Z,12.77
2018-02-27T22:45:10.287Z,14.15
2018-02-27T22:47:40.891Z,11.12
2018-02-27T22:50:10.639Z,11.25
2018-02-27T22:52:39.569Z,10.05
2018-02-27T22:55:08.670Z,8.00
2018-02-27T22:57:38.046Z,8.80
2018-02-27T23:00:06.229Z,7.65
2018-02-27T23:02:37.470Z,7.53
2018-02-27T23:05:05.670Z,11.95
2018-02-27T23:07:35.476Z,10.80
2018-02-27T23:10:05.069Z,8.57
2018-02-27T23:12:33.241Z,9.57
2018-02-27T23:15:04.049Z,13.13
2018-02-27T23:17:34.464Z,10.15
2018-02-27T23:20:03.701Z,10.65
2018-02-27T23:22:32.612Z,12.48
2018-02-27T23:25:05.842Z,13.15
2018-02-27T23:27:37.361Z,4.70
2018-02-27T23:30:06.040Z,11.60
2018-02-27T23:32:36.614Z,8.07
2018-02-27T23:35:11.266Z,7.85
2018-02-27T23:37:47.235Z,9.38
2018-02-27T23:40:15.414Z,8.10
2018-02-27T23:42:44.664Z,10.73
2018-02-27T23:45:26.760Z,12.57
2018-02-27T23:47:55.954Z,11.38
2018-02-27T23:50:24.389Z,14.63
2018-02-27T23:52:52.567Z,13.30
2018-02-27T23:55:20.745Z,10.40
2018-02-27T23:57:48.965Z,10.57
